CW9197 Juva FI current weather conditions

sailwx.info

Wind from 194 at 6 knots gusting 8

Air temperature -0.0° C
Dewpoint -0.9° C

Last reported at 2014-Nov-24 17:44 UTC.
Time now 2014-Nov-24 18:06 UTC

Location: N 61°53' E 027°53'.
View on Google Maps.

See reports from other nearby stations

  
Tides and Currents Weather Stations Pressure Air Temp Water Temp Dewpoint Dewpoint Depression Visibility Wind Speed Wind Dir Waves Ship Positions
date/time (UTC)wind fromknots sea level pressurealtimeterstation pressurevisibilityair tempwater tempwave heightnotes
2014-Nov-24 17:44 194 6 gusting 8 -0.0
2014-Nov-24 17:34 200 5 gusting 10 -0.0
2014-Nov-24 16:44 184 3 gusting 8 -0.0
2014-Nov-24 16:14 187 4 gusting 13 -0.0
2014-Nov-24 16:04 187 6 gusting 13 -0.0
2014-Nov-24 15:54 175 6 gusting 10 -0.0
2014-Nov-24 15:24 196 4 gusting 7 -0.0
2014-Nov-24 14:54 187 5 gusting 10 -0.0
2014-Nov-24 14:44 200 8 gusting 12 -0.0
2014-Nov-24 14:24 194 5 gusting 8 -0.0
2014-Nov-24 14:14 191 6 gusting 12 -0.0
2014-Nov-24 13:44 197 6 gusting 10 -0.0
2014-Nov-24 13:34 198 6 gusting 12 -0.0
2014-Nov-24 13:14 201 6 gusting 10 -0.0
2014-Nov-24 13:04 196 4 gusting 9 -0.0
2014-Nov-24 12:54 188 6 gusting 9 -0.0
2014-Nov-24 12:44 188 4 gusting 7 -0.0
2014-Nov-24 12:14 197 6 gusting 8 0.6
2014-Nov-24 11:54 199 5 gusting 6 0.6
2014-Nov-24 11:24 180 4 gusting 6 0.6
2014-Nov-24 11:04 205 6 gusting 8 0.6
2014-Nov-24 10:54 198 3 gusting 7 0.6
2014-Nov-24 10:24 201 6 gusting 9 0.6
2014-Nov-24 10:14 207 5 gusting 10 1.1
2014-Nov-24 10:04 205 5 gusting 8 0.6
2014-Nov-24 09:54 200 4 gusting 7 0.6
2014-Nov-24 09:44 202 4 gusting 6 0.6
2014-Nov-24 09:23 206 5 gusting 8 1.1
2014-Nov-24 09:13 198 4 gusting 7 1.1
2014-Nov-24 09:03 210 4 gusting 6 1.1
2014-Nov-24 08:53 204 4 gusting 6 1.1
2014-Nov-24 08:43 205 4 gusting 7 1.1
2014-Nov-24 08:33 193 3 gusting 6 1.1
2014-Nov-24 08:13 207 5 gusting 9 0.6
2014-Nov-24 08:03 206 5 gusting 6 0.6
2014-Nov-24 07:23 204 5 gusting 7 0.6
2014-Nov-24 07:03 199 4 gusting 6 0.6
2014-Nov-24 06:53 203 3 gusting 5 0.6
2014-Nov-24 06:43 202 3 gusting 4 0.6
2014-Nov-24 06:33 201 3 gusting 5 0.6
2014-Nov-24 05:53 201 3 gusting 5 0.6
2014-Nov-24 05:43 202 3 gusting 4 0.6
2014-Nov-24 05:33 199 3 gusting 5 0.6
2014-Nov-24 05:13 203 3 gusting 3 0.6
2014-Nov-23 20:24 225 -2.2
2014-Nov-23 20:14 202 -2.2
2014-Nov-23 20:04 180 -2.2
2014-Nov-23 19:54 180 -2.2
2014-Nov-23 19:34 180 -2.2
2014-Nov-23 19:04 202 -2.2
2014-Nov-23 18:54 202 -2.2
2014-Nov-23 18:44 225 -2.2
2014-Nov-23 18:34 225 -2.2
2014-Nov-23 18:04 202 -2.2
2014-Nov-23 17:54 225 -2.2
2014-Nov-23 17:23 202 -2.8
2014-Nov-23 16:53 202 -2.8
2014-Nov-23 16:43 180 -2.8
2014-Nov-23 16:33 180 -2.8
2014-Nov-23 16:13 180 -2.2
2014-Nov-23 15:43 225 -2.2
2014-Nov-23 15:23 202 -2.2
2014-Nov-23 15:13 202 -2.2
2014-Nov-23 15:03 202 -2.2
2014-Nov-23 14:43 202 -2.2
2014-Nov-23 14:33 225 -2.2
2014-Nov-23 14:13 247 -2.2
2014-Nov-23 14:03 225 -2.2
2014-Nov-23 13:33 225 -1.7
2014-Nov-23 13:13 225 -1.7
2014-Nov-23 13:03 247 -1.7
2014-Nov-23 12:33 225 -1.1
2014-Nov-23 12:03 202 -1.1
2014-Nov-23 11:53 270 -0.6
2014-Nov-23 11:43 225 -0.6
2014-Nov-23 11:33 247 -0.6
2014-Nov-23 11:13 202 -0.6
2014-Nov-23 11:03 225 -0.6
2014-Nov-23 10:43 247 -0.6
2014-Nov-23 10:33 225 -0.6
2014-Nov-23 10:13 202 -0.6
2014-Nov-23 10:03 225 -0.6
2014-Nov-23 09:43 225 -0.6
2014-Nov-23 09:33 225 -0.6
2014-Nov-23 09:13 180 -0.6
2014-Nov-23 09:03 180 -0.6
2014-Nov-23 08:53 180 -0.6
2014-Nov-23 08:43 180 -0.6
2014-Nov-23 08:33 180 -0.6
2014-Nov-23 08:13 180 -1.1
2014-Nov-23 07:53 225 -1.1
2014-Nov-23 07:32 270 -1.1
2014-Nov-23 07:12 225 -1.1
2014-Nov-23 07:02 270 -1.1
2014-Nov-23 06:52 247 -1.1
2014-Nov-23 06:42 247 -1.1
2014-Nov-23 06:32 270 -1.1
2014-Nov-23 06:02 270 -1.1
2014-Nov-23 05:22 225 -0.6
2014-Nov-23 05:12 247 -0.6
2014-Nov-22 20:24 066 2 gusting 3 -0.0
2014-Nov-22 20:04 050 1 gusting 4 -0.0
2014-Nov-22 19:54 059 2 gusting 2 -0.0
2014-Nov-22 19:34 051 1 gusting 4 -0.0
2014-Nov-22 19:14 061 -0.0
2014-Nov-22 19:04 080 0 gusting 2 -0.6
2014-Nov-22 18:54 061 1 gusting 3 -0.6
2014-Nov-22 18:34 056 1 gusting 2 -0.0